MST,Max TemperatureF,Mean TemperatureF,Min TemperatureF,Max Dew PointF,MeanDew PointF,Min DewpointF,Max Humidity, Mean Humidity, Min Humidity, Max Sea Level PressureIn, Mean Sea Level PressureIn, Min Sea Level PressureIn, Max VisibilityMiles, Mean VisibilityMiles, Min VisibilityMiles, Max Wind SpeedMPH, Mean Wind SpeedMPH, Max Gust SpeedMPH,PrecipitationIn, CloudCover, Events, WindDirDegrees
2013-11-1,52,41,29,38,32,26,100,71,41,30.30,30.25,30.20,10,10,7,16,3,20,0.01,6,Rain,332
2013-11-2,47,38,28,39,32,26,92,75,58,30.15,29.85,29.70,10,10,5,23,4,30,0.08,6,Rain,301
2013-11-3,41,35,29,31,28,23,100,73,46,30.04,29.92,29.81,10,8,1,22,4,29,0.03,8,Snow,329
2013-11-4,35,30,24,29,27,23,100,91,82,30.24,30.10,29.96,10,9,2,10,2,12,T,7,Snow,86
2013-11-5,35,28,21,29,25,17,92,72,51,30.30,30.21,30.13,10,6,1,9,2,13,0.01,7,Snow,176
2013-11-6,44,36,28,33,29,28,100,77,53,30.42,30.30,30.15,10,6,1,10,1,14,0.10,8,Snow,295
2013-11-7,44,39,33,39,35,31,100,88,76,30.38,30.04,29.75,10,9,4,26,4,35,0.16,7,Rain,259
2013-11-8,45,39,33,36,33,27,92,73,53,30.21,30.06,29.93,10,10,10,20,3,26,T,8,,283
2013-11-9,43,35,26,32,30,26,92,75,57,30.32,30.26,30.22,10,10,10,7,1,7,0.00,4,,219
2013-11-10,45,40,35,40,36,32,93,85,76,30.25,30.21,30.12,10,10,8,9,1,13,0.02,8,Rain,303
2013-11-11,50,44,38,41,38,36,100,86,71,30.47,30.37,30.22,10,9,5,14,3,18,0.06,6,Rain,77
2013-11-12,49,43,36,38,37,35,92,82,71,30.45,30.41,30.36,10,9,4,7,3,8,0.00,6,,133
2013-11-13,52,44,36,40,36,31,100,72,44,30.37,30.33,30.28,10,7,1,21,6,26,0.01,8,Rain,300
2013-11-14,46,40,34,34,32,29,92,75,58,30.26,30.05,29.88,10,10,10,10,3,15,T,6,,161
2013-11-15,42,39,36,32,27,22,76,60,43,29.87,29.67,29.42,10,10,10,21,5,26,0.00,8,,256
2013-11-16,43,38,32,34,28,22,92,70,48,29.68,29.40,29.24,10,9,4,23,10,29,T,8,Snow,185
2013-11-17,40,35,30,32,29,26,92,76,59,30.02,29.89,29.62,10,8,2,13,4,15,T,8,Snow,164
2013-11-18,46,39,31,31,27,22,89,65,41,30.05,29.96,29.82,10,10,10,14,4,16,0.00,3,,159
2013-11-19,52,41,30,38,34,29,92,73,54,29.81,29.71,29.64,10,10,10,20,7,26,T,8,Rain,197
2013-11-20,45,32,18,35,17,7,76,52,27,30.42,30.05,29.69,10,10,10,24,9,31,0.00,3,,311
2013-11-21,30,20,10,11,8,4,76,55,34,30.78,30.66,30.43,10,10,10,6,0,6,0.00,0,,340
2013-11-22,31,20,9,13,10,6,92,68,43,30.90,30.82,30.76,10,10,9,3,0,6,0.00,0,,270
2013-11-23,33,22,10,14,12,7,92,69,45,30.79,30.66,30.49,10,10,10,5,0,5,0.00,0,,175
2013-11-24,33,23,12,21,16,9,92,73,54,30.48,30.42,30.35,10,10,9,6,0,6,0.00,3,,-1
2013-11-25,40,28,15,22,19,14,84,66,48,30.55,30.51,30.43,10,10,8,6,0,6,0.00,0,,290
2013-11-26,38,28,17,24,21,16,91,75,59,30.52,30.41,30.28,10,10,9,5,0,6,0.00,0,,315
2013-11-27,37,27,17,26,21,15,92,78,64,30.33,30.27,30.21,10,10,8,3,0,5,0.00,0,,-1
2013-11-28,34,24,13,25,17,12,100,85,69,30.35,30.25,30.17,10,5,0,6,0,6,T,3,Fog-Snow,263
2013-11-29,31,23,14,27,20,12,100,89,78,30.40,30.28,30.18,10,4,0,6,0,7,T,6,Fog-Snow,289
2013-11-30,39,35,30,33,30,27,96,87,78,30.33,30.29,30.23,10,8,5,6,1,7,0.02,8,Rain,235